Time;durP1;ratioP1;P1;durP2;ratioP2;P2;SDS_P1;SDS_P2;PMS_P1;PMS_P2;Temp;Humidity;BMP_temperature;BMP_pressure;BME280_temperature;BME280_humidity;BME280_pressure;Samples;Min_cycle;Max_cycle;Signal;HPM_P1;HPM_P2
2020/12/28 00:01:58;;;;;;;3.10;0.63;;;7.20;89.20;;;;;;5035654;28;21007;-79
2020/12/28 00:04:25;;;;;;;0.40;0.30;;;7.20;88.80;;;;;;5036108;28;20442;-79
2020/12/28 00:06:52;;;;;;;0.77;0.50;;;7.20;88.80;;;;;;5036070;28;20541;-79
2020/12/28 00:09:19;;;;;;;0.80;0.60;;;7.20;89.00;;;;;;5036409;28;20458;-79
2020/12/28 00:11:45;;;;;;;0.40;0.30;;;7.10;89.20;;;;;;5036218;28;20944;-79
2020/12/28 00:14:11;;;;;;;1.00;0.53;;;7.10;89.60;;;;;;5036090;28;20455;-80
2020/12/28 00:16:38;;;;;;;0.50;0.30;;;7.10;90.00;;;;;;5036468;28;20462;-80
2020/12/28 00:19:04;;;;;;;1.47;0.40;;;7.10;90.10;;;;;;5035726;28;20952;-79
2020/12/28 00:21:30;;;;;;;0.70;0.70;;;7.10;90.10;;;;;;5035895;28;20509;-79
2020/12/28 00:23:57;;;;;;;0.70;0.60;;;7.10;90.30;;;;;;5036114;28;20454;-81
2020/12/28 00:26:25;;;;;;;0.40;0.40;;;7.10;90.40;;;;;;5035479;28;20467;-79
2020/12/28 00:28:51;;;;;;;0.60;0.43;;;7.00;90.50;;;;;;5035131;28;20932;-80
2020/12/28 00:31:17;;;;;;;0.73;0.63;;;7.00;90.50;;;;;;5035672;28;20438;-81
2020/12/28 00:33:43;;;;;;;0.50;0.47;;;7.00;90.30;;;;;;5035017;28;20447;-78
2020/12/28 00:36:14;;;;;;;0.50;0.40;;;6.90;90.40;;;;;;5034832;28;20473;-79
2020/12/28 00:38:41;;;;;;;1.07;0.90;;;6.90;90.50;;;;;;5035730;28;20481;-79
2020/12/28 00:41:11;;;;;;;0.57;0.40;;;6.80;90.60;;;;;;5035383;28;20482;-79
2020/12/28 00:43:41;;;;;;;1.90;0.50;;;6.80;90.60;;;;;;5035647;28;20434;-79
2020/12/28 00:46:08;;;;;;;0.50;0.40;;;6.80;90.70;;;;;;5035482;28;20482;-79
2020/12/28 00:48:34;;;;;;;0.60;0.60;;;6.70;90.80;;;;;;5035585;28;20462;-79
2020/12/28 00:51:00;;;;;;;0.97;0.50;;;6.80;90.80;;;;;;5035263;28;20446;-79
2020/12/28 00:53:26;;;;;;;1.33;0.50;;;6.70;90.90;;;;;;5035165;28;20457;-78
2020/12/28 00:55:53;;;;;;;1.33;0.70;;;6.70;91.20;;;;;;5035246;28;20477;-79
2020/12/28 00:58:20;;;;;;;0.70;0.47;;;6.70;91.20;;;;;;5035182;28;20454;-79
2020/12/28 01:00:46;;;;;;;1.43;0.70;;;6.70;91.30;;;;;;5035081;28;20478;-79
2020/12/28 01:03:12;;;;;;;0.63;0.57;;;6.80;91.40;;;;;;5034780;28;20512;-78
2020/12/28 01:05:38;;;;;;;1.00;0.60;;;6.80;91.30;;;;;;5035490;28;20972;-78
2020/12/28 01:08:05;;;;;;;0.97;0.87;;;6.80;91.40;;;;;;5034152;28;20454;-78
2020/12/28 01:10:31;;;;;;;0.87;0.67;;;6.80;91.50;;;;;;5034549;28;20509;-78
2020/12/28 01:12:57;;;;;;;4.10;1.40;;;6.80;91.40;;;;;;5034872;28;20497;-78
2020/12/28 01:15:25;;;;;;;1.70;0.73;;;6.80;91.40;;;;;;5034646;28;20481;-81
2020/12/28 01:17:51;;;;;;;0.90;0.50;;;6.80;91.40;;;;;;5034622;28;20461;-79
2020/12/28 01:20:18;;;;;;;1.80;0.67;;;6.80;91.60;;;;;;5034553;28;20488;-79
2020/12/28 01:22:44;;;;;;;1.27;1.00;;;6.80;91.60;;;;;;5034308;28;20486;-80
2020/12/28 01:25:10;;;;;;;1.50;0.87;;;6.80;91.70;;;;;;5034328;28;20460;-80
2020/12/28 01:27:36;;;;;;;1.33;0.67;;;6.80;91.60;;;;;;5034211;28;20482;-80
2020/12/28 01:30:03;;;;;;;0.40;0.40;;;6.80;91.40;;;;;;5034846;28;20449;-80
2020/12/28 01:32:30;;;;;;;2.53;0.70;;;6.70;91.30;;;;;;5034770;28;20449;-80
2020/12/28 01:34:57;;;;;;;1.47;0.73;;;6.70;91.40;;;;;;5034804;28;20450;-80
2020/12/28 01:37:23;;;;;;;1.50;0.90;;;6.70;91.60;;;;;;5040081;28;20474;-80
2020/12/28 01:39:49;;;;;;;0.90;0.80;;;6.70;91.50;;;;;;5038612;28;20454;-80
2020/12/28 01:42:16;;;;;;;1.03;0.67;;;6.70;91.60;;;;;;5036021;28;20482;-80
2020/12/28 01:44:42;;;;;;;0.77;0.63;;;6.70;91.60;;;;;;5035424;28;20453;-80
2020/12/28 01:47:08;;;;;;;0.97;0.70;;;6.70;91.70;;;;;;5037640;28;20500;-80
2020/12/28 01:49:35;;;;;;;0.70;0.60;;;6.70;91.70;;;;;;5039244;28;20453;-80
2020/12/28 01:52:02;;;;;;;0.90;0.70;;;6.70;91.80;;;;;;5039762;28;20443;-81
2020/12/28 01:54:29;;;;;;;0.60;0.60;;;6.70;92.00;;;;;;5040474;28;20534;-81
2020/12/28 01:56:56;;;;;;;1.37;0.53;;;6.60;91.90;;;;;;5039223;28;20458;-81
2020/12/28 01:59:24;;;;;;;2.97;0.60;;;6.60;92.00;;;;;;5039021;28;20442;-81
2020/12/28 02:01:52;;;;;;;0.57;0.57;;;6.70;92.10;;;;;;5039233;28;20486;-81
2020/12/28 02:04:19;;;;;;;0.60;0.60;;;6.70;92.20;;;;;;5039370;28;20450;-81
2020/12/28 02:06:46;;;;;;;0.60;0.60;;;6.70;92.20;;;;;;5039001;28;20477;-81
2020/12/28 02:09:13;;;;;;;0.70;0.50;;;6.70;92.10;;;;;;5038823;28;20446;-81
2020/12/28 02:11:39;;;;;;;0.70;0.53;;;6.70;92.10;;;;;;5038671;28;20453;-81
2020/12/28 02:14:06;;;;;;;0.93;0.73;;;6.70;92.20;;;;;;5038996;28;20456;-82
2020/12/28 02:16:32;;;;;;;1.17;0.80;;;6.70;92.20;;;;;;5039263;28;20462;-82
2020/12/28 02:18:59;;;;;;;2.13;0.97;;;6.70;92.20;;;;;;5039155;28;20462;-82
2020/12/28 02:21:26;;;;;;;1.57;0.80;;;6.70;92.20;;;;;;5038963;28;20486;-82
2020/12/28 02:23:53;;;;;;;0.60;0.60;;;6.80;92.30;;;;;;5038714;28;20447;-82
2020/12/28 02:26:19;;;;;;;0.87;0.50;;;6.80;92.20;;;;;;5038510;28;20541;-82
2020/12/28 02:28:45;;;;;;;1.00;0.57;;;6.80;92.20;;;;;;5038913;28;20419;-82
2020/12/28 02:31:12;;;;;;;1.00;0.83;;;6.80;92.10;;;;;;5038538;28;20489;-82
2020/12/28 02:33:40;;;;;;;0.97;0.63;;;6.80;92.10;;;;;;5038428;28;20451;-82
2020/12/28 02:36:08;;;;;;;0.90;0.60;;;6.80;92.10;;;;;;5037805;28;20984;-81
2020/12/28 02:38:34;;;;;;;0.70;0.57;;;6.70;92.00;;;;;;5038187;28;20499;-82
2020/12/28 02:41:03;;;;;;;1.50;0.80;;;6.70;92.00;;;;;;5037642;28;20478;-82
2020/12/28 02:43:29;;;;;;;1.73;1.00;;;6.70;92.00;;;;;;5038371;28;20470;-82
2020/12/28 02:45:56;;;;;;;0.93;0.73;;;6.70;92.00;;;;;;5038085;28;20470;-81
2020/12/28 02:48:22;;;;;;;0.60;0.60;;;6.70;92.00;;;;;;5038337;28;20442;-83
2020/12/28 02:50:48;;;;;;;0.63;0.60;;;6.70;92.10;;;;;;5038112;28;20450;-82
2020/12/28 02:53:14;;;;;;;3.50;0.60;;;6.70;92.00;;;;;;5038091;28;20439;-82
2020/12/28 02:55:41;;;;;;;1.13;0.90;;;6.70;92.10;;;;;;5037836;28;20445;-82
2020/12/28 02:58:08;;;;;;;1.10;0.70;;;6.70;92.10;;;;;;5036997;28;20824;-82
2020/12/28 03:00:34;;;;;;;1.23;1.00;;;6.70;92.20;;;;;;5038153;28;20454;-82
2020/12/28 03:03:00;;;;;;;0.93;0.90;;;6.70;92.20;;;;;;5037440;28;20944;-82
2020/12/28 03:05:27;;;;;;;1.10;0.97;;;6.70;92.20;;;;;;5037457;28;20824;-82
2020/12/28 03:07:53;;;;;;;1.20;1.10;;;6.70;92.30;;;;;;5037359;28;20435;-81
2020/12/28 03:10:20;;;;;;;1.63;1.10;;;6.70;92.30;;;;;;5037565;28;20443;-83
2020/12/28 03:12:46;;;;;;;1.30;0.90;;;6.70;92.40;;;;;;5037377;28;20455;-83
2020/12/28 03:15:13;;;;;;;0.80;0.80;;;6.80;92.40;;;;;;5037562;28;20454;-83
2020/12/28 03:17:39;;;;;;;0.73;0.70;;;6.80;92.40;;;;;;5038092;28;20991;-81
2020/12/28 03:20:06;;;;;;;0.93;0.83;;;6.80;92.70;;;;;;5037643;28;20467;-80
2020/12/28 03:22:32;;;;;;;0.97;0.97;;;6.90;92.30;;;;;;5037405;28;20490;-82
2020/12/28 03:24:59;;;;;;;1.33;1.10;;;6.80;92.20;;;;;;5037236;28;20910;-82
2020/12/28 03:27:25;;;;;;;1.33;1.20;;;6.90;92.20;;;;;;5037644;28;20470;-83
2020/12/28 03:29:51;;;;;;;1.83;1.03;;;6.90;92.20;;;;;;5037338;28;20441;-81
2020/12/28 03:32:18;;;;;;;1.33;0.77;;;6.90;92.10;;;;;;5037475;28;20447;-81
2020/12/28 03:34:44;;;;;;;0.90;0.90;;;6.90;92.00;;;;;;5037342;28;20445;-81
2020/12/28 03:37:11;;;;;;;1.83;0.83;;;6.90;92.00;;;;;;5037173;28;20475;-81
2020/12/28 03:39:37;;;;;;;0.80;0.60;;;6.90;92.10;;;;;;5037229;28;20509;-83
2020/12/28 03:42:03;;;;;;;1.47;1.20;;;6.90;92.00;;;;;;5036558;28;20479;-83
2020/12/28 03:44:29;;;;;;;0.80;0.33;;;6.80;92.00;;;;;;5037104;28;20454;-81
2020/12/28 03:46:55;;;;;;;0.83;0.40;;;6.90;92.00;;;;;;5037096;28;20854;-82
2020/12/28 03:49:23;;;;;;;2.00;0.40;;;6.90;91.60;;;;;;5037195;28;20435;-81
2020/12/28 03:51:49;;;;;;;1.27;0.40;;;6.90;91.60;;;;;;5036978;28;20435;-81
2020/12/28 03:54:15;;;;;;;0.50;0.40;;;6.80;91.60;;;;;;5036801;28;20458;-83
2020/12/28 03:56:41;;;;;;;0.40;0.30;;;6.80;91.70;;;;;;5036635;28;21002;-81
2020/12/28 03:59:07;;;;;;;2.73;0.90;;;6.80;91.80;;;;;;5036970;28;20461;-82
2020/12/28 04:01:34;;;;;;;3.43;0.50;;;6.80;91.80;;;;;;5036811;28;20486;-81
2020/12/28 04:04:00;;;;;;;1.63;0.40;;;6.80;91.90;;;;;;5036819;28;20929;-82
2020/12/28 04:06:27;;;;;;;0.50;0.40;;;6.80;91.90;;;;;;5036400;28;20462;-82
2020/12/28 04:08:53;;;;;;;1.50;0.60;;;6.70;91.80;;;;;;5036584;28;20454;-82
2020/12/28 04:11:19;;;;;;;4.00;2.00;;;6.70;91.80;;;;;;5035483;28;20485;-82
2020/12/28 04:13:46;;;;;;;0.60;0.40;;;6.70;91.80;;;;;;5036468;28;20513;-82
2020/12/28 04:16:14;;;;;;;1.50;1.00;;;6.70;91.90;;;;;;5036168;28;20479;-82
2020/12/28 04:18:41;;;;;;;1.33;0.70;;;6.70;91.90;;;;;;5035935;28;20451;-82
2020/12/28 04:21:07;;;;;;;0.50;0.30;;;6.70;91.80;;;;;;5035979;28;20482;-80
2020/12/28 04:23:34;;;;;;;1.07;0.50;;;6.70;91.70;;;;;;5035438;28;20446;-80
2020/12/28 04:26:00;;;;;;;0.40;0.20;;;6.70;91.70;;;;;;5035805;28;20548;-80
2020/12/28 04:28:30;;;;;;;0.80;0.57;;;6.70;91.80;;;;;;5036656;28;20450;-81
2020/12/28 04:30:56;;;;;;;1.57;0.33;;;6.60;91.90;;;;;;5035929;28;20442;-81
2020/12/28 04:33:23;;;;;;;0.60;0.40;;;6.60;92.00;;;;;;5036658;28;20435;-82
2020/12/28 04:35:49;;;;;;;2.93;0.60;;;6.60;92.10;;;;;;5036092;28;20880;-82
2020/12/28 04:38:15;;;;;;;0.30;0.30;;;6.60;92.20;;;;;;5035802;28;20529;-82
2020/12/28 04:40:43;;;;;;;1.47;0.30;;;6.70;92.00;;;;;;5036045;28;20450;-82
2020/12/28 04:43:13;;;;;;;0.40;0.40;;;6.70;91.90;;;;;;5041567;28;20477;-82
2020/12/28 04:45:40;;;;;;;0.87;0.40;;;6.60;91.80;;;;;;5040277;28;20447;-82
2020/12/28 04:48:07;;;;;;;0.50;0.50;;;6.60;91.70;;;;;;5036910;28;20451;-82
2020/12/28 04:50:34;;;;;;;1.67;0.70;;;6.60;91.70;;;;;;5036342;28;20450;-82
2020/12/28 04:53:03;;;;;;;0.87;0.57;;;6.60;91.70;;;;;;5036452;28;20442;-82
2020/12/28 04:55:29;;;;;;;0.73;0.40;;;6.50;91.70;;;;;;5036051;28;20434;-82
2020/12/28 04:57:57;;;;;;;0.60;0.60;;;6.50;91.60;;;;;;5035940;28;20450;-82
2020/12/28 05:00:23;;;;;;;1.30;0.70;;;6.40;91.50;;;;;;5036073;28;20936;-82
2020/12/28 05:02:49;;;;;;;1.83;1.03;;;6.40;91.50;;;;;;5036391;28;20493;-82
2020/12/28 05:05:15;;;;;;;1.03;0.93;;;6.30;91.40;;;;;;5036180;28;20446;-82
2020/12/28 05:07:48;;;;;;;1.37;1.27;;;6.30;91.50;;;;;;5035936;28;20478;-82
2020/12/28 05:10:25;;;;;;;2.33;1.47;;;6.30;91.50;;;;;;5035595;28;20441;-82
2020/12/28 05:12:51;;;;;;;1.13;1.07;;;6.30;91.50;;;;;;5035558;28;20430;-82
2020/12/28 05:15:19;;;;;;;1.50;1.20;;;6.30;91.40;;;;;;5034911;28;20474;-82
2020/12/28 05:17:53;;;;;;;2.00;1.47;;;6.20;91.10;;;;;;5035365;28;20458;-82
2020/12/28 05:20:22;;;;;;;2.20;1.70;;;6.20;91.30;;;;;;5035332;28;20958;-82
2020/12/28 05:22:51;;;;;;;1.70;1.53;;;6.10;91.40;;;;;;5035128;28;20474;-82
2020/12/28 05:25:17;;;;;;;1.20;1.10;;;6.10;91.50;;;;;;5035846;28;20458;-82
2020/12/28 05:27:46;;;;;;;1.50;1.40;;;6.10;91.40;;;;;;5035498;28;20493;-82
2020/12/28 05:30:13;;;;;;;1.83;1.63;;;6.10;91.50;;;;;;5035441;28;20470;-82
2020/12/28 05:32:44;;;;;;;2.00;1.00;;;6.10;91.40;;;;;;5035326;28;20451;-82
2020/12/28 05:35:13;;;;;;;4.13;1.00;;;6.10;91.40;;;;;;5035471;28;20411;-82
2020/12/28 05:37:40;;;;;;;2.50;1.67;;;6.10;91.40;;;;;;5034980;28;20478;-82
2020/12/28 05:40:10;;;;;;;2.23;1.33;;;6.10;91.40;;;;;;5035146;28;20450;-82
2020/12/28 05:42:38;;;;;;;1.20;1.10;;;6.10;91.30;;;;;;5034740;28;20483;-82
2020/12/28 05:45:08;;;;;;;1.33;1.23;;;6.10;91.30;;;;;;5034937;28;20482;-82
2020/12/28 05:47:41;;;;;;;2.23;1.70;;;6.00;91.30;;;;;;5035760;28;20474;-82
2020/12/28 05:50:09;;;;;;;1.40;1.30;;;6.00;91.30;;;;;;5034929;28;20435;-82
2020/12/28 05:52:38;;;;;;;3.30;1.20;;;5.90;91.30;;;;;;5034237;28;21063;-82
2020/12/28 05:55:05;;;;;;;1.30;1.20;;;6.00;91.40;;;;;;5034595;28;20438;-82
2020/12/28 05:57:31;;;;;;;4.13;2.30;;;5.90;91.40;;;;;;5034905;28;20470;-82
2020/12/28 05:59:57;;;;;;;5.03;2.00;;;5.90;91.40;;;;;;5034310;28;21001;-82
2020/12/28 06:02:27;;;;;;;3.73;1.73;;;5.80;91.40;;;;;;5034033;28;21080;-82
2020/12/28 06:04:54;;;;;;;2.73;1.90;;;5.80;91.40;;;;;;5034422;28;20431;-82
2020/12/28 06:07:22;;;;;;;2.30;2.10;;;5.90;91.50;;;;;;5034154;28;20467;-82
2020/12/28 06:09:56;;;;;;;6.90;1.97;;;5.90;91.50;;;;;;5034553;28;20858;-82
2020/12/28 06:12:22;;;;;;;1.40;1.30;;;5.90;91.50;;;;;;5033965;28;20449;-82
2020/12/28 06:14:48;;;;;;;1.50;1.40;;;5.90;91.40;;;;;;5033835;28;20500;-82
2020/12/28 06:17:14;;;;;;;1.17;1.03;;;5.80;91.30;;;;;;5034248;28;20552;-82
2020/12/28 06:19:42;;;;;;;2.70;1.70;;;5.80;91.30;;;;;;5034053;28;20928;-82
2020/12/28 06:22:29;;;;;;;3.70;1.47;;;5.80;91.30;;;;;;5034346;28;20532;-82
2020/12/28 06:24:58;;;;;;;1.73;1.30;;;5.80;91.30;;;;;;5028494;28;20451;-82
2020/12/28 06:27:32;;;;;;;2.57;1.20;;;5.80;91.30;;;;;;5033664;28;20504;-82
2020/12/28 06:30:13;;;;;;;1.27;1.17;;;5.80;91.30;;;;;;5033534;28;20979;-82
2020/12/28 06:32:40;;;;;;;2.00;1.43;;;5.90;91.40;;;;;;5033609;28;20909;-82
2020/12/28 06:35:08;;;;;;;1.57;1.13;;;5.90;91.40;;;;;;5036621;28;20948;-82
2020/12/28 06:37:43;;;;;;;3.70;2.30;;;5.90;91.30;;;;;;5036852;28;20508;-83
2020/12/28 06:40:11;;;;;;;4.17;2.93;;;5.90;91.20;;;;;;5036939;28;20504;-82
2020/12/28 06:42:37;;;;;;;5.60;3.23;;;5.90;91.10;;;;;;5036963;28;20474;-83
2020/12/28 06:45:14;;;;;;;6.20;4.10;;;5.90;90.80;;;;;;5037610;28;20839;-83
2020/12/28 06:47:41;;;;;;;7.10;3.87;;;5.90;90.60;;;;;;5037086;28;20536;-83
2020/12/28 06:50:07;;;;;;;7.40;3.90;;;5.90;90.50;;;;;;5036849;28;20438;-83
2020/12/28 06:52:34;;;;;;;3.80;3.40;;;5.90;90.40;;;;;;5037716;28;20469;-83
2020/12/28 06:55:08;;;;;;;4.00;2.67;;;5.90;90.30;;;;;;5037136;28;20450;-83
2020/12/28 06:57:34;;;;;;;2.93;2.10;;;5.90;90.30;;;;;;5037044;28;20467;-83
2020/12/28 07:00:00;;;;;;;4.10;2.40;;;5.90;90.20;;;;;;5036924;28;20450;-84
2020/12/28 07:02:28;;;;;;;5.77;2.50;;;5.90;90.20;;;;;;5037100;28;20483;-83
2020/12/28 07:04:54;;;;;;;3.03;2.50;;;5.90;90.10;;;;;;5036830;28;20454;-83
2020/12/28 07:07:21;;;;;;;3.00;2.17;;;5.90;90.00;;;;;;5036985;28;20518;-83
2020/12/28 07:09:47;;;;;;;1.63;1.53;;;5.80;89.80;;;;;;5036655;28;20451;-83
2020/12/28 07:12:15;;;;;;;4.60;1.80;;;5.80;89.70;;;;;;5036801;28;20446;-83
2020/12/28 07:14:41;;;;;;;2.10;1.20;;;5.80;89.40;;;;;;5036272;28;20458;-83
2020/12/28 07:17:07;;;;;;;2.17;1.50;;;5.80;89.30;;;;;;5036825;28;20477;-83
2020/12/28 07:19:34;;;;;;;5.37;2.10;;;5.80;89.40;;;;;;5036886;28;20451;-83
2020/12/28 07:22:00;;;;;;;3.33;1.33;;;5.80;89.30;;;;;;5036429;28;20493;-83
2020/12/28 07:24:26;;;;;;;2.00;1.40;;;5.80;89.40;;;;;;5036396;28;20446;-83
2020/12/28 07:26:54;;;;;;;5.23;1.80;;;5.70;89.40;;;;;;5036744;28;20470;-83
2020/12/28 07:29:22;;;;;;;2.10;1.37;;;5.70;89.40;;;;;;5036480;28;20490;-83
2020/12/28 07:31:48;;;;;;;4.20;1.80;;;5.70;89.40;;;;;;5036458;28;20493;-83
2020/12/28 07:34:15;;;;;;;2.07;1.90;;;5.70;89.40;;;;;;5036247;28;20847;-83
2020/12/28 07:36:44;;;;;;;2.83;1.80;;;5.70;89.30;;;;;;5036176;28;20470;-83
2020/12/28 07:39:12;;;;;;;4.80;2.03;;;5.70;89.10;;;;;;5036593;28;20454;-83
2020/12/28 07:41:39;;;;;;;2.37;1.97;;;5.70;89.00;;;;;;5035987;28;21023;-83
2020/12/28 07:44:05;;;;;;;4.23;2.30;;;5.70;88.80;;;;;;5035655;28;20948;-83
2020/12/28 07:46:44;;;;;;;3.33;2.37;;;5.70;88.50;;;;;;5038631;28;20470;-83
2020/12/28 07:49:15;;;;;;;2.23;2.03;;;5.60;88.20;;;;;;5042623;28;20411;-83
2020/12/28 07:51:43;;;;;;;4.10;3.03;;;5.60;88.20;;;;;;5038672;28;20471;-83
2020/12/28 07:54:15;;;;;;;6.33;2.47;;;5.60;87.90;;;;;;5037915;28;20845;-83
2020/12/28 07:56:46;;;;;;;2.57;2.37;;;5.60;87.90;;;;;;5037458;28;20473;-83
2020/12/28 07:59:44;;;;;;;2.30;2.07;;;5.60;87.80;;;;;;5037422;28;20828;-83
2020/12/28 08:02:33;;;;;;;4.53;3.27;;;5.50;87.80;;;;;;5037365;28;20968;-83
2020/12/28 08:05:00;;;;;;;3.23;2.40;;;5.50;87.70;;;;;;5037212;28;20418;-83
2020/12/28 08:07:33;;;;;;;2.50;2.30;;;5.50;87.80;;;;;;5036339;28;20466;-83
2020/12/28 08:10:00;;;;;;;3.37;2.60;;;5.50;87.90;;;;;;5036478;28;20927;-83
2020/12/28 08:12:30;;;;;;;2.87;2.50;;;5.50;88.00;;;;;;5036479;28;20446;-83
2020/12/28 08:14:57;;;;;;;7.37;2.77;;;5.50;88.20;;;;;;5036801;28;20517;-83
2020/12/28 08:17:24;;;;;;;3.70;2.30;;;5.50;88.30;;;;;;5036012;28;20459;-83
2020/12/28 08:19:51;;;;;;;5.00;3.17;;;5.50;88.50;;;;;;5036541;28;20457;-83
2020/12/28 08:22:21;;;;;;;5.33;2.50;;;5.50;88.60;;;;;;5035834;28;20494;-83
2020/12/28 08:24:57;;;;;;;6.37;2.27;;;5.40;88.70;;;;;;5035855;28;20481;-83
2020/12/28 08:27:24;;;;;;;7.63;2.53;;;5.40;88.80;;;;;;5036003;28;20470;-83
2020/12/28 08:29:52;;;;;;;4.63;1.93;;;5.50;89.10;;;;;;5035983;28;20449;-83
2020/12/28 08:32:18;;;;;;;3.70;2.10;;;5.50;89.40;;;;;;5036004;28;20450;-83
2020/12/28 08:34:55;;;;;;;3.00;2.20;;;5.60;89.60;;;;;;5036184;28;20451;-83
2020/12/28 08:37:21;;;;;;;2.40;2.20;;;5.60;89.60;;;;;;5036135;28;20466;-84
2020/12/28 08:39:47;;;;;;;2.63;2.33;;;5.60;89.50;;;;;;5036019;28;20940;-83
2020/12/28 08:42:14;;;;;;;4.57;2.93;;;5.60;89.50;;;;;;5035517;28;20486;-82
2020/12/28 08:44:42;;;;;;;4.57;3.00;;;5.70;89.60;;;;;;5035747;28;20442;-83
2020/12/28 08:47:11;;;;;;;10.00;6.60;;;5.70;89.70;;;;;;5035197;28;21015;-83
2020/12/28 08:49:37;;;;;;;11.37;7.17;;;5.70;89.70;;;;;;5035205;28;20512;-83
2020/12/28 08:52:09;;;;;;;8.40;5.67;;;5.80;89.90;;;;;;5035566;28;20485;-83
2020/12/28 08:54:35;;;;;;;7.47;4.60;;;5.80;89.90;;;;;;5035161;28;20434;-83
2020/12/28 08:57:01;;;;;;;4.83;3.10;;;5.90;90.00;;;;;;5034547;28;20471;-83
2020/12/28 08:59:27;;;;;;;4.97;3.67;;;5.90;90.00;;;;;;5034747;28;20478;-83
2020/12/28 09:01:54;;;;;;;4.53;4.10;;;5.90;89.90;;;;;;5034870;28;20474;-83
2020/12/28 09:04:22;;;;;;;5.90;4.23;;;6.00;89.90;;;;;;5035014;28;20461;-83
2020/12/28 09:06:48;;;;;;;6.50;3.73;;;6.10;90.00;;;;;;5034676;28;20498;-83
2020/12/28 09:09:15;;;;;;;5.00;3.90;;;6.10;89.90;;;;;;5034346;28;21006;-82
2020/12/28 09:11:42;;;;;;;6.40;3.90;;;6.10;89.80;;;;;;5034186;28;20933;-83
2020/12/28 09:14:08;;;;;;;6.50;3.80;;;6.10;89.70;;;;;;5034825;28;20477;-83
2020/12/28 09:16:34;;;;;;;9.70;3.37;;;6.20;89.80;;;;;;5034433;28;20473;-83
2020/12/28 09:19:00;;;;;;;3.17;2.63;;;6.20;89.70;;;;;;5034607;28;20427;-83
2020/12/28 09:21:27;;;;;;;4.80;2.30;;;6.20;89.30;;;;;;5034287;28;20462;-83
2020/12/28 09:23:53;;;;;;;9.60;2.30;;;6.20;89.10;;;;;;5034399;28;20435;-83
2020/12/28 09:26:20;;;;;;;5.47;1.83;;;6.30;89.20;;;;;;5034832;28;20473;-81
2020/12/28 09:28:46;;;;;;;3.53;1.80;;;6.30;89.20;;;;;;5034308;28;20445;-82
2020/12/28 09:31:12;;;;;;;4.23;2.00;;;6.30;89.00;;;;;;5034372;28;20513;-82
2020/12/28 09:33:39;;;;;;;3.47;1.80;;;6.30;89.20;;;;;;5034334;28;20447;-82
2020/12/28 09:36:05;;;;;;;3.43;1.87;;;6.30;89.40;;;;;;5033955;28;20466;-82
2020/12/28 09:38:31;;;;;;;4.07;1.90;;;6.30;89.60;;;;;;5034263;28;20835;-82
2020/12/28 09:40:57;;;;;;;4.20;2.60;;;6.40;89.60;;;;;;5034250;28;20447;-82
2020/12/28 09:43:24;;;;;;;4.90;2.47;;;6.40;89.70;;;;;;5034262;28;20532;-82
2020/12/28 09:45:52;;;;;;;3.30;2.60;;;6.40;90.20;;;;;;5034115;28;20487;-81
2020/12/28 09:48:18;;;;;;;2.90;2.63;;;6.40;89.90;;;;;;5034101;28;20453;-81
2020/12/28 09:50:44;;;;;;;6.63;2.87;;;6.50;90.00;;;;;;5033985;28;20461;-82
2020/12/28 09:53:10;;;;;;;6.33;3.07;;;6.50;90.00;;;;;;5034214;28;20501;-82
2020/12/28 09:55:37;;;;;;;6.30;2.80;;;6.50;89.90;;;;;;5034573;28;20442;-82
2020/12/28 09:58:03;;;;;;;2.47;2.27;;;6.60;90.00;;;;;;5034111;28;20439;-82
2020/12/28 10:00:30;;;;;;;3.57;2.50;;;6.60;89.80;;;;;;5034564;28;20500;-82
2020/12/28 10:02:56;;;;;;;5.80;2.30;;;6.70;89.90;;;;;;5034135;28;20497;-82
2020/12/28 10:05:22;;;;;;;3.80;2.40;;;6.70;89.80;;;;;;5034255;28;20442;-81
2020/12/28 10:07:49;;;;;;;3.80;2.03;;;6.70;89.70;;;;;;5036271;28;20854;-82
2020/12/28 10:10:15;;;;;;;2.70;2.20;;;6.70;89.60;;;;;;5038767;28;20971;-82
2020/12/28 10:12:41;;;;;;;6.10;2.10;;;6.70;89.60;;;;;;5037866;28;20415;-81
2020/12/28 10:15:07;;;;;;;3.17;2.40;;;6.70;89.50;;;;;;5037704;28;20454;-82
2020/12/28 10:17:35;;;;;;;4.10;3.07;;;6.70;89.40;;;;;;5037840;28;20462;-80
2020/12/28 10:20:02;;;;;;;4.00;2.00;;;6.80;89.40;;;;;;5038166;28;20484;-81
2020/12/28 10:22:28;;;;;;;4.83;2.40;;;6.80;89.20;;;;;;5038834;28;20466;-81
2020/12/28 10:24:54;;;;;;;3.90;2.53;;;6.80;89.00;;;;;;5038129;28;20944;-81
2020/12/28 10:27:21;;;;;;;6.03;2.57;;;6.80;89.00;;;;;;5037826;28;20804;-82
2020/12/28 10:29:47;;;;;;;2.93;2.33;;;6.90;88.90;;;;;;5037898;28;20454;-82
2020/12/28 10:32:13;;;;;;;6.23;1.93;;;6.90;88.60;;;;;;5038109;28;20508;-83
2020/12/28 10:34:40;;;;;;;2.57;1.63;;;6.90;88.50;;;;;;5037893;28;20461;-82
2020/12/28 10:37:07;;;;;;;3.67;2.33;;;6.90;88.50;;;;;;5037730;28;20462;-81
2020/12/28 10:39:33;;;;;;;3.50;2.60;;;7.00;88.40;;;;;;5037635;28;20485;-83
2020/12/28 10:42:03;;;;;;;2.90;2.20;;;7.10;88.40;;;;;;5037276;28;20489;-82
2020/12/28 10:44:30;;;;;;;4.90;2.00;;;7.20;88.30;;;;;;5037777;28;20490;-82
2020/12/28 10:46:56;;;;;;;3.53;2.03;;;7.20;87.90;;;;;;5037903;28;20462;-83
2020/12/28 10:49:22;;;;;;;2.67;2.20;;;7.30;87.50;;;;;;5037314;28;20447;-82
2020/12/28 10:51:49;;;;;;;2.87;1.80;;;7.30;86.90;;;;;;5036903;28;20415;-83
2020/12/28 10:54:15;;;;;;;2.40;1.50;;;7.40;86.90;;;;;;5037359;28;20442;-82
2020/12/28 10:56:42;;;;;;;1.50;1.40;;;7.50;86.90;;;;;;5037395;28;20465;-82
2020/12/28 10:59:08;;;;;;;1.87;1.50;;;7.50;86.90;;;;;;5037403;28;20438;-84
2020/12/28 11:01:34;;;;;;;2.70;1.47;;;7.60;86.80;;;;;;5037357;28;20775;-82
2020/12/28 11:04:00;;;;;;;32.47;3.37;;;7.60;86.30;;;;;;5037237;28;20469;-83
2020/12/28 11:06:28;;;;;;;4.83;2.00;;;7.70;86.70;;;;;;5036933;28;20467;-81
2020/12/28 11:08:55;;;;;;;2.40;1.80;;;7.70;86.00;;;;;;5037179;28;20846;-82
2020/12/28 11:11:21;;;;;;;1.93;1.60;;;7.80;85.60;;;;;;5037944;28;20488;-82
2020/12/28 11:13:48;;;;;;;2.67;1.50;;;7.80;85.20;;;;;;5036906;28;20446;-80
2020/12/28 11:16:15;;;;;;;1.97;1.67;;;7.80;85.30;;;;;;5036835;28;20566;-82
2020/12/28 11:18:41;;;;;;;3.77;2.17;;;7.90;85.40;;;;;;5036396;28;20921;-83
2020/12/28 11:21:08;;;;;;;2.43;1.90;;;7.90;85.40;;;;;;5036340;28;20435;-83
2020/12/28 11:26:19;;;;;;;2.10;1.57;;;7.90;84.60;;;;;;5036844;28;20446;-85
2020/12/28 11:28:46;;;;;;;1.63;1.47;;;7.90;84.60;;;;;;5037307;28;20445;-84
2020/12/28 11:31:13;;;;;;;8.00;2.10;;;7.90;84.60;;;;;;5036779;28;20403;-84
2020/12/28 11:33:40;;;;;;;3.40;1.90;;;7.90;84.70;;;;;;5037238;28;20831;-84
2020/12/28 11:36:06;;;;;;;2.17;1.70;;;8.00;84.80;;;;;;5036962;28;20524;-82
2020/12/28 11:38:32;;;;;;;2.40;1.60;;;8.10;84.80;;;;;;5036993;28;20438;-80
2020/12/28 11:40:58;;;;;;;2.50;1.70;;;8.20;84.60;;;;;;5036855;28;20450;-83
2020/12/28 11:43:27;;;;;;;1.53;1.30;;;8.40;84.50;;;;;;5035967;28;20486;-82
2020/12/28 11:45:53;;;;;;;2.60;1.40;;;8.50;84.10;;;;;;5036995;28;20834;-84
2020/12/28 11:48:19;;;;;;;2.27;1.50;;;8.70;83.40;;;;;;5037647;28;20431;-82
2020/12/28 11:50:47;;;;;;;1.43;1.30;;;8.90;82.80;;;;;;5037483;28;20454;-82
2020/12/28 11:53:13;;;;;;;3.73;1.80;;;9.20;81.90;;;;;;5037040;28;20427;-82
2020/12/28 11:58:24;;;;;;;3.67;2.20;;;10.00;77.80;;;;;;5029393;28;20438;-82
2020/12/28 12:00:51;;;;;;;4.53;2.27;;;10.40;75.30;;;;;;5038139;28;20435;-81
2020/12/28 12:03:17;;;;;;;2.70;1.90;;;10.80;74.10;;;;;;5036508;28;21015;-81
2020/12/28 12:05:43;;;;;;;2.60;2.00;;;11.00;73.60;;;;;;5036534;28;20434;-81
2020/12/28 12:08:09;;;;;;;3.33;1.57;;;11.10;73.00;;;;;;5036426;28;20920;-81
2020/12/28 12:10:35;;;;;;;4.03;1.47;;;11.20;71.50;;;;;;5036715;28;20431;-81
2020/12/28 12:13:06;;;;;;;3.60;1.63;;;11.30;70.80;;;;;;5035724;28;20435;-81
2020/12/28 12:15:33;;;;;;;5.77;2.37;;;11.20;69.00;;;;;;5035102;28;20462;-81
2020/12/28 12:18:01;;;;;;;5.57;2.60;;;11.00;69.20;;;;;;5035650;28;20454;-80
2020/12/28 12:20:27;;;;;;;2.83;1.43;;;10.70;69.40;;;;;;5035389;28;20814;-81
2020/12/28 12:22:53;;;;;;;2.00;1.47;;;10.40;69.80;;;;;;5036274;28;20482;-83
2020/12/28 12:25:19;;;;;;;2.73;1.30;;;10.20;71.10;;;;;;5039578;28;20501;-82
2020/12/28 12:27:46;;;;;;;2.00;1.43;;;10.10;72.40;;;;;;5038274;28;20549;-80
2020/12/28 12:30:12;;;;;;;2.00;1.17;;;10.00;73.10;;;;;;5039237;28;20451;-81
2020/12/28 12:32:41;;;;;;;3.40;1.50;;;10.00;73.90;;;;;;5037752;28;20423;-80
2020/12/28 12:35:07;;;;;;;1.90;1.00;;;10.00;74.20;;;;;;5037238;28;20461;-83
2020/12/28 12:37:36;;;;;;;6.60;1.27;;;10.00;74.20;;;;;;5037736;28;20474;-83
2020/12/28 12:40:02;;;;;;;2.17;1.10;;;10.00;74.20;;;;;;5041199;28;20427;-81
2020/12/28 12:42:30;;;;;;;1.40;1.30;;;10.00;73.50;;;;;;5040382;28;20971;-82
2020/12/28 12:44:56;;;;;;;1.83;1.30;;;10.00;73.30;;;;;;5039686;28;20809;-81
2020/12/28 12:47:22;;;;;;;1.90;1.30;;;9.90;74.30;;;;;;5039522;28;20477;-82
2020/12/28 12:49:49;;;;;;;1.97;0.87;;;9.80;74.00;;;;;;5038606;28;20448;-81
2020/12/28 12:52:17;;;;;;;2.50;1.57;;;9.80;73.80;;;;;;5038577;28;20435;-80
2020/12/28 12:54:44;;;;;;;1.73;1.40;;;9.70;74.30;;;;;;5048450;28;20442;-83
2020/12/28 12:57:10;;;;;;;4.23;1.30;;;9.50;73.10;;;;;;5050548;28;20471;-84
2020/12/28 13:02:23;;;;;;;2.23;1.40;;;9.40;73.90;;;;;;5039320;28;20470;-84
2020/12/28 13:04:53;;;;;;;2.63;1.40;;;9.40;74.90;;;;;;5039973;28;20419;-84